Flight Track Log - Related Links

Times and Time Zones

All times are in EDT time to prevent confusion due to time zone crossing. See the N327R flight status page for this flight to view local times or setup timezone preferences in your user account.

Time Position Orientation Groundspeed Altitude Reporting Facility
EDT Latitude Longitude Course Direction KTS MPH feet Rate Location/Type
Wed 10:40:32 PM 33.8667 -84.1667 90° East 217 250 4,800  Level Atlanta TRACON
Wed 10:41:32 PM 33.8667 -84.1000 90° East 240 276 5,000 571 Climbing Atlanta TRACON
Wed 10:42:38 PM 33.8667 -84.0167 90° East 225 259 6,000 1,000 Climbing Atlanta TRACON
Wed 10:43:32 PM 33.8333 -83.9667 129° Southeast 212 244 7,000 500 Climbing Atlanta TRACON
Wed 10:44:38 PM 33.8000 -83.8833 116° Southeast 268 308 7,000  Level Atlanta TRACON
Wed 10:45:12 PM 33.7836 -83.8414 115° Southeast 274 315 7,000 2,106 Level Atlanta Center
Wed 10:46:12 PM 33.7564 -83.7664 114° Southeast 249 287 10,300 2,000 Climbing Atlanta Center
Wed 10:47:12 PM 33.7333 -83.7042 114° Southeast 209 241 11,000 350 Climbing Atlanta Center
Wed 10:48:12 PM 33.7017 -83.6269 116° Southeast 230 265 11,000 950 Level Atlanta Center
Wed 10:49:12 PM 33.6722 -83.5544 116° Southeast 245 282 12,900 1,950 Climbing Atlanta Center
Wed 10:50:12 PM 33.6950 -83.4894 67° East 202 232 14,900 1,850 Climbing Atlanta Center
Wed 10:51:12 PM 33.7217 -83.4319 61° Northeast 190 219 16,600 1,050 Climbing Atlanta Center
Wed 10:52:12 PM 33.7547 -83.3592 61° Northeast 215 247 17,000 200 Climbing Atlanta Center
Wed 10:53:12 PM 33.7856 -83.2789 65° Northeast 249 287 17,000  Level Atlanta Center
Wed 10:54:12 PM 33.8186 -83.2011 63° Northeast 261 300 17,000  Level Atlanta Center
Wed 10:55:12 PM 33.8533 -83.1183 63° Northeast 261 300 17,000  Level Atlanta Center
Wed 10:56:12 PM 33.8861 -83.0453 62° Northeast 266 306 17,000  Level Atlanta Center
Wed 10:57:12 PM 33.9189 -82.9625 64° Northeast 261 300 17,000  Level Atlanta Center
Wed 10:58:12 PM 33.9536 -82.8792 63° Northeast 261 300 17,000  Level Atlanta Center
Wed 10:59:12 PM 33.9864 -82.7986 64° Northeast 261 300 17,000  Level Atlanta Center
Wed 11:00:12 PM 34.0231 -82.7178 61° Northeast 268 308 17,000  Level Atlanta Center
Wed 11:01:12 PM 34.0575 -82.6372 63° Northeast 263 303 17,000  Level Atlanta Center
Wed 11:02:12 PM 34.0881 -82.5564 65° Northeast 258 297 17,000  Level Atlanta Center
Wed 11:03:12 PM 34.1225 -82.4756 63° Northeast 258 297 17,000  Level Atlanta Center
Wed 11:04:12 PM 34.1547 -82.3919 65° Northeast 263 303 17,000  Level Atlanta Center
Wed 11:05:12 PM 34.1869 -82.3111 64° Northeast 263 303 17,000  Level Atlanta Center
Wed 11:06:12 PM 34.2214 -82.2300 63° Northeast 263 303 17,000  Level Atlanta Center
Wed 11:07:12 PM 34.2556 -82.1489 63° Northeast 263 303 17,000  Level Atlanta Center
Wed 11:08:12 PM 34.3089 -82.0822 46° Northeast 263 303 17,000  Level Atlanta Center
Wed 11:09:12 PM 34.3619 -82.0181 45° Northeast 263 303 17,000  Level Atlanta Center
Wed 11:10:12 PM 34.4150 -81.9489 47° Northeast 263 303 17,000 -200 Level Atlanta Center
Wed 11:11:12 PM 34.4661 -81.8847 46° Northeast 268 308 16,600 -850 Descending Atlanta Center
Wed 11:12:12 PM 34.5253 -81.8100 46° Northeast 285 328 15,300 -1,250 Descending Atlanta Center
Wed 11:13:12 PM 34.5781 -81.7303 51° Northeast 290 334 14,100 -1,200 Descending Atlanta Center
Wed 11:14:12 PM 34.6161 -81.6383 63° Northeast 297 342 12,900 -1,319 Descending Atlanta Center
Wed 11:14:43 PM 34.6400 -81.5822 63° Northeast 305 351 12,100 -1,239 Descending Atlanta Center
Wed 11:15:44 PM 34.6714 -81.4828 69° East 304 350 11,000 -885 Descending Atlanta Center
Wed 11:16:45 PM 34.6881 -81.3839 78° East 297 342 10,300 -984 Descending Atlanta Center
Wed 11:17:46 PM 34.7494 -81.3364 32° Northeast 279 321 9,000 -1,820 Descending Atlanta Center
Wed 11:18:47 PM 34.7814 -81.2644 62° Northeast 260 299 6,600 -1,552 Descending Atlanta Center
Wed 11:19:42 PM 34.7922 -81.1883 80° East 240 276 6,000 -565 Descending Atlanta Center
Wed 11:20:12 PM 34.7956 -81.1528 83° East 224 258 5,800 -900 Descending Atlanta Center
Wed 11:20:42 PM 34.8006 -81.1069 82° East 238 274 5,100 -800 Descending Atlanta Center
Wed 11:21:12 PM 34.8017 -81.0639 88° East 244 281 5,000 -98 Descending Atlanta Center
Wed 11:21:43 PM 34.8069 -81.0233 81° East 257 296 5,000  Level Atlanta Center
Wed 11:22:44 PM 34.8217 -80.9394 78° East 236 272 5,000  Level Atlanta Center
Wed 11:23:45 PM 34.8447 -80.8650 69° East 239 275 5,000  Level Atlanta Center
Wed 11:24:45 PM 34.8783 -80.7953 60° Northeast 241 277 5,000  Level Atlanta Center
Wed 11:25:52 PM 34.9136 -80.7131 62° Northeast 239 275 5,000  Level Atlanta Center
Wed 11:26:47 PM 34.9608 -80.6756 33° Northeast 237 273 5,000 -639 Level Atlanta Center
Wed 11:27:54 PM 35.0325 -80.6347 25° Northeast 262 302 3,700 -984 Descending Atlanta Center
Wed 11:28:49 PM 35.0983 -80.5964 25° Northeast 282 325 3,000 -347 Descending Atlanta Center
Wed 11:29:55 PM 35.1711 -80.5858 North 243 280 3,000  Level Atlanta Center

Login

Don't have an account? Register now (free) for customized features, flight alerts, and more!